sensor_id;sensor_type;location;lat;lon;timestamp;pressure;altitude;pressure_sealevel;temperature;humidity
71126;BME280;58785;55.566;38.058;2023-01-09T00:01:04;102056.19;;;-14.64;62.95
71126;BME280;58785;55.566;38.058;2023-01-09T00:03:34;102060.94;;;-14.75;63.40
71126;BME280;58785;55.566;38.058;2023-01-09T00:06:00;102042.25;;;-14.95;62.84
71126;BME280;58785;55.566;38.058;2023-01-09T00:08:25;102062.88;;;-14.92;62.73
71126;BME280;58785;55.566;38.058;2023-01-09T00:10:51;102059.25;;;-14.97;62.96
71126;BME280;58785;55.566;38.058;2023-01-09T00:13:17;102059.25;;;-14.97;62.03
71126;BME280;58785;55.566;38.058;2023-01-09T00:15:42;102066.59;;;-15.04;62.91
71126;BME280;58785;55.566;38.058;2023-01-09T00:18:08;102077.50;;;-15.10;62.81
71126;BME280;58785;55.566;38.058;2023-01-09T00:20:35;102061.03;;;-15.17;62.41
71126;BME280;58785;55.566;38.058;2023-01-09T00:23:00;102080.16;;;-15.07;62.05
71126;BME280;58785;55.566;38.058;2023-01-09T00:25:26;102079.19;;;-15.11;63.44
71126;BME280;58785;55.566;38.058;2023-01-09T00:27:52;102077.59;;;-15.07;62.55
71126;BME280;58785;55.566;38.058;2023-01-09T00:30:17;102075.25;;;-15.02;62.22
71126;BME280;58785;55.566;38.058;2023-01-09T00:32:43;102066.66;;;-15.03;63.09
71126;BME280;58785;55.566;38.058;2023-01-09T00:35:12;102074.84;;;-14.91;61.81
71126;BME280;58785;55.566;38.058;2023-01-09T00:37:39;102077.50;;;-14.88;61.62
71126;BME280;58785;55.566;38.058;2023-01-09T00:40:05;102086.81;;;-14.90;61.86
71126;BME280;58785;55.566;38.058;2023-01-09T00:42:32;102081.81;;;-14.87;61.85
71126;BME280;58785;55.566;38.058;2023-01-09T00:45:02;102095.16;;;-14.94;62.00
71126;BME280;58785;55.566;38.058;2023-01-09T00:47:37;102081.97;;;-15.04;62.31
71126;BME280;58785;55.566;38.058;2023-01-09T00:50:09;102084.41;;;-15.07;62.59
71126;BME280;58785;55.566;38.058;2023-01-09T00:52:37;102086.03;;;-15.10;62.38
71126;BME280;58785;55.566;38.058;2023-01-09T00:55:05;102080.97;;;-15.08;62.78
71126;BME280;58785;55.566;38.058;2023-01-09T00:57:31;102081.09;;;-15.05;62.15
71126;BME280;58785;55.566;38.058;2023-01-09T00:59:58;102072.88;;;-15.19;61.38
71126;BME280;58785;55.566;38.058;2023-01-09T01:02:24;102078.09;;;-15.16;61.86
71126;BME280;58785;55.566;38.058;2023-01-09T01:04:49;102082.19;;;-15.21;62.34
71126;BME280;58785;55.566;38.058;2023-01-09T01:07:48;102076.94;;;-15.24;62.17
71126;BME280;58785;55.566;38.058;2023-01-09T01:10:16;102057.66;;;-15.36;61.75
71126;BME280;58785;55.566;38.058;2023-01-09T01:12:44;102079.38;;;-15.27;62.03
71126;BME280;58785;55.566;38.058;2023-01-09T01:15:11;102070.66;;;-15.32;62.11
71126;BME280;58785;55.566;38.058;2023-01-09T01:17:38;102059.41;;;-15.35;62.11
71126;BME280;58785;55.566;38.058;2023-01-09T01:20:06;102057.66;;;-15.36;62.31
71126;BME280;58785;55.566;38.058;2023-01-09T01:22:32;102076.00;;;-15.26;62.38
71126;BME280;58785;55.566;38.058;2023-01-09T01:24:58;102075.50;;;-15.17;61.27
71126;BME280;58785;55.566;38.058;2023-01-09T01:27:24;102074.78;;;-15.13;62.07
71126;BME280;58785;55.566;38.058;2023-01-09T01:29:50;102064.75;;;-15.08;61.61
71126;BME280;58785;55.566;38.058;2023-01-09T01:32:15;102078.38;;;-15.10;62.54
71126;BME280;58785;55.566;38.058;2023-01-09T01:34:41;102075.97;;;-15.05;61.87
71126;BME280;58785;55.566;38.058;2023-01-09T01:37:07;102072.59;;;-15.04;61.17
71126;BME280;58785;55.566;38.058;2023-01-09T01:39:32;102060.81;;;-15.00;61.57
71126;BME280;58785;55.566;38.058;2023-01-09T01:41:58;102073.91;;;-14.93;62.07
71126;BME280;58785;55.566;38.058;2023-01-09T01:47:22;102070.19;;;-15.01;62.42
71126;BME280;58785;55.566;38.058;2023-01-09T01:49:49;102069.38;;;-15.00;61.41
71126;BME280;58785;55.566;38.058;2023-01-09T01:52:16;102084.88;;;-14.95;61.94
71126;BME280;58785;55.566;38.058;2023-01-09T01:54:44;102067.72;;;-14.98;62.12
71126;BME280;58785;55.566;38.058;2023-01-09T01:57:10;102078.94;;;-14.94;61.31
71126;BME280;58785;55.566;38.058;2023-01-09T01:59:48;102074.44;;;-15.01;61.02
71126;BME280;58785;55.566;38.058;2023-01-09T02:02:22;102065.63;;;-15.08;62.79
71126;BME280;58785;55.566;38.058;2023-01-09T02:04:49;102059.38;;;-15.15;62.28
71126;BME280;58785;55.566;38.058;2023-01-09T02:07:16;102081.69;;;-15.12;61.99
71126;BME280;58785;55.566;38.058;2023-01-09T02:09:42;102083.13;;;-15.19;61.83
71126;BME280;58785;55.566;38.058;2023-01-09T02:12:24;102088.22;;;-15.19;61.96
71126;BME280;58785;55.566;38.058;2023-01-09T02:15:03;102084.28;;;-15.11;61.24
71126;BME280;58785;55.566;38.058;2023-01-09T02:20:40;102067.75;;;-15.19;61.52
71126;BME280;58785;55.566;38.058;2023-01-09T02:31:41;102094.72;;;-14.84;60.52
71126;BME280;58785;55.566;38.058;2023-01-09T02:34:13;102101.72;;;-14.79;61.38
71126;BME280;58785;55.566;38.058;2023-01-09T02:39:27;102093.97;;;-14.81;60.78
71126;BME280;58785;55.566;38.058;2023-01-09T02:42:04;102099.16;;;-14.79;61.73
71126;BME280;58785;55.566;38.058;2023-01-09T02:44:34;102100.25;;;-14.73;60.84
71126;BME280;58785;55.566;38.058;2023-01-09T02:49:45;102103.72;;;-14.93;60.57
71126;BME280;58785;55.566;38.058;2023-01-09T02:52:33;102119.56;;;-14.81;61.10
71126;BME280;58785;55.566;38.058;2023-01-09T02:55:17;102111.91;;;-14.81;60.82
71126;BME280;58785;55.566;38.058;2023-01-09T03:01:22;102121.28;;;-14.82;61.77
71126;BME280;58785;55.566;38.058;2023-01-09T03:07:05;102097.06;;;-14.90;61.36
71126;BME280;58785;55.566;38.058;2023-01-09T03:09:36;102109.03;;;-14.89;61.47
71126;BME280;58785;55.566;38.058;2023-01-09T03:12:12;102114.03;;;-14.92;60.75
71126;BME280;58785;55.566;38.058;2023-01-09T03:14:47;102111.84;;;-14.83;60.66
71126;BME280;58785;55.566;38.058;2023-01-09T03:17:18;102092.44;;;-14.98;61.11
71126;BME280;58785;55.566;38.058;2023-01-09T03:19:45;102101.88;;;-14.97;61.49
71126;BME280;58785;55.566;38.058;2023-01-09T03:22:11;102120.97;;;-14.89;61.43
71126;BME280;58785;55.566;38.058;2023-01-09T03:24:36;102109.50;;;-14.99;60.87
71126;BME280;58785;55.566;38.058;2023-01-09T03:27:06;102122.28;;;-14.99;61.47
71126;BME280;58785;55.566;38.058;2023-01-09T03:29:32;102129.03;;;-15.01;61.54
71126;BME280;58785;55.566;38.058;2023-01-09T03:31:58;102132.31;;;-15.03;61.22
71126;BME280;58785;55.566;38.058;2023-01-09T03:34:23;102130.63;;;-15.03;61.36
71126;BME280;58785;55.566;38.058;2023-01-09T03:36:49;102136.66;;;-15.02;61.60
71126;BME280;58785;55.566;38.058;2023-01-09T03:39:14;102120.97;;;-15.10;61.24
71126;BME280;58785;55.566;38.058;2023-01-09T03:41:40;102129.53;;;-15.10;61.91
71126;BME280;58785;55.566;38.058;2023-01-09T03:44:05;102139.75;;;-15.10;61.38
71126;BME280;58785;55.566;38.058;2023-01-09T03:46:31;102135.69;;;-15.04;62.05
71126;BME280;58785;55.566;38.058;2023-01-09T03:48:57;102134.09;;;-15.02;61.76
71126;BME280;58785;55.566;38.058;2023-01-09T03:51:22;102144.31;;;-15.02;61.94
71126;BME280;58785;55.566;38.058;2023-01-09T03:53:48;102122.72;;;-15.09;61.85
71126;BME280;58785;55.566;38.058;2023-01-09T03:56:13;102143.34;;;-15.04;61.05
71126;BME280;58785;55.566;38.058;2023-01-09T03:58:39;102142.69;;;-15.00;61.73
71126;BME280;58785;55.566;38.058;2023-01-09T04:01:05;102150.53;;;-14.96;61.81
71126;BME280;58785;55.566;38.058;2023-01-09T04:03:37;102156.53;;;-14.95;61.43
71126;BME280;58785;55.566;38.058;2023-01-09T04:06:03;102153.25;;;-14.93;61.47
71126;BME280;58785;55.566;38.058;2023-01-09T04:08:29;102144.22;;;-15.04;61.25
71126;BME280;58785;55.566;38.058;2023-01-09T04:10:55;102152.00;;;-15.02;61.33
71126;BME280;58785;55.566;38.058;2023-01-09T04:13:21;102132.91;;;-15.11;61.43
71126;BME280;58785;55.566;38.058;2023-01-09T04:15:47;102149.59;;;-14.98;60.68
71126;BME280;58785;55.566;38.058;2023-01-09T04:18:13;102154.78;;;-14.96;61.13
71126;BME280;58785;55.566;38.058;2023-01-09T04:20:38;102144.38;;;-15.01;60.62
71126;BME280;58785;55.566;38.058;2023-01-09T04:23:04;102136.34;;;-15.10;60.75
71126;BME280;58785;55.566;38.058;2023-01-09T04:25:30;102153.59;;;-15.04;61.79
71126;BME280;58785;55.566;38.058;2023-01-09T04:27:55;102159.69;;;-15.02;61.14
71126;BME280;58785;55.566;38.058;2023-01-09T04:30:21;102162.34;;;-14.99;60.86
71126;BME280;58785;55.566;38.058;2023-01-09T04:32:47;102157.03;;;-15.04;60.83
71126;BME280;58785;55.566;38.058;2023-01-09T04:35:12;102156.22;;;-15.03;61.23
71126;BME280;58785;55.566;38.058;2023-01-09T04:37:38;102160.47;;;-15.03;61.47
71126;BME280;58785;55.566;38.058;2023-01-09T04:40:05;102169.09;;;-15.01;60.35
71126;BME280;58785;55.566;38.058;2023-01-09T04:42:33;102165.50;;;-15.05;61.58
71126;BME280;58785;55.566;38.058;2023-01-09T04:44:58;102169.91;;;-15.02;61.75
71126;BME280;58785;55.566;38.058;2023-01-09T04:47:24;102175.03;;;-15.02;60.28
71126;BME280;58785;55.566;38.058;2023-01-09T04:49:50;102163.44;;;-15.14;61.26
71126;BME280;58785;55.566;38.058;2023-01-09T04:52:16;102166.44;;;-15.24;60.84
71126;BME280;58785;55.566;38.058;2023-01-09T04:54:42;102174.25;;;-15.21;60.59
71126;BME280;58785;55.566;38.058;2023-01-09T04:57:07;102194.25;;;-15.12;61.31
71126;BME280;58785;55.566;38.058;2023-01-09T04:59:33;102171.72;;;-15.21;60.52
71126;BME280;58785;55.566;38.058;2023-01-09T05:01:59;102182.13;;;-15.16;61.80
71126;BME280;58785;55.566;38.058;2023-01-09T05:04:25;102178.69;;;-15.17;61.72
71126;BME280;58785;55.566;38.058;2023-01-09T05:06:50;102194.53;;;-15.04;60.75
71126;BME280;58785;55.566;38.058;2023-01-09T05:09:16;102185.94;;;-15.06;61.01
71126;BME280;58785;55.566;38.058;2023-01-09T05:11:42;102185.94;;;-15.06;61.00
71126;BME280;58785;55.566;38.058;2023-01-09T05:14:08;102191.16;;;-15.03;60.89
71126;BME280;58785;55.566;38.058;2023-01-09T05:16:34;102191.38;;;-14.99;61.12
71126;BME280;58785;55.566;38.058;2023-01-09T05:19:00;102199.91;;;-14.98;60.97
71126;BME280;58785;55.566;38.058;2023-01-09T05:21:26;102197.34;;;-14.98;60.67
71126;BME280;58785;55.566;38.058;2023-01-09T05:23:52;102184.56;;;-14.98;61.84
71126;BME280;58785;55.566;38.058;2023-01-09T05:26:19;102181.00;;;-15.02;61.22
71126;BME280;58785;55.566;38.058;2023-01-09T05:28:54;102199.97;;;-14.97;60.92
71126;BME280;58785;55.566;38.058;2023-01-09T05:31:24;102180.69;;;-15.10;61.28
71126;BME280;58785;55.566;38.058;2023-01-09T05:33:50;102203.91;;;-15.05;60.02
71126;BME280;58785;55.566;38.058;2023-01-09T05:36:16;102193.66;;;-15.05;61.99
71126;BME280;58785;55.566;38.058;2023-01-09T05:38:42;102201.34;;;-15.05;61.27
71126;BME280;58785;55.566;38.058;2023-01-09T05:41:07;102202.16;;;-15.06;61.19
71126;BME280;58785;55.566;38.058;2023-01-09T05:43:33;102209.88;;;-15.04;60.30
71126;BME280;58785;55.566;38.058;2023-01-09T05:45:59;102205.63;;;-15.04;60.95
71126;BME280;58785;55.566;38.058;2023-01-09T05:48:25;102200.28;;;-15.10;60.66
71126;BME280;58785;55.566;38.058;2023-01-09T05:50:50;102207.81;;;-15.13;60.79
71126;BME280;58785;55.566;38.058;2023-01-09T05:53:16;102227.50;;;-15.12;60.79
71126;BME280;58785;55.566;38.058;2023-01-09T05:55:42;102213.13;;;-15.29;60.91
71126;BME280;58785;55.566;38.058;2023-01-09T05:58:07;102240.22;;;-15.33;61.72
71126;BME280;58785;55.566;38.058;2023-01-09T06:00:33;102233.25;;;-15.37;61.31
71126;BME280;58785;55.566;38.058;2023-01-09T06:02:59;102210.84;;;-15.43;60.65
71126;BME280;58785;55.566;38.058;2023-01-09T06:05:24;102218.59;;;-15.41;60.99
71126;BME280;58785;55.566;38.058;2023-01-09T06:07:50;102231.56;;;-15.36;61.10
71126;BME280;58785;55.566;38.058;2023-01-09T06:10:16;102250.53;;;-15.31;61.02
71126;BME280;58785;55.566;38.058;2023-01-09T06:12:46;102229.75;;;-15.39;61.05
71126;BME280;58785;55.566;38.058;2023-01-09T06:15:12;102257.88;;;-15.20;60.93
71126;BME280;58785;55.566;38.058;2023-01-09T06:17:39;102255.19;;;-15.23;60.60
71126;BME280;58785;55.566;38.058;2023-01-09T06:20:06;102261.16;;;-15.22;60.92
71126;BME280;58785;55.566;38.058;2023-01-09T06:22:32;102261.06;;;-15.24;61.11
71126;BME280;58785;55.566;38.058;2023-01-09T06:24:58;102252.63;;;-15.23;60.45
71126;BME280;58785;55.566;38.058;2023-01-09T06:27:24;102258.41;;;-15.27;60.56
71126;BME280;58785;55.566;38.058;2023-01-09T06:29:50;102242.13;;;-15.48;61.03
71126;BME280;58785;55.566;38.058;2023-01-09T06:32:15;102249.38;;;-15.57;61.01
71126;BME280;58785;55.566;38.058;2023-01-09T06:34:41;102258.16;;;-15.52;59.96
71126;BME280;58785;55.566;38.058;2023-01-09T06:37:07;102251.63;;;-15.65;60.63
71126;BME280;58785;55.566;38.058;2023-01-09T06:39:32;102256.56;;;-15.70;61.38
71126;BME280;58785;55.566;38.058;2023-01-09T06:41:58;102270.66;;;-15.58;60.20
71126;BME280;58785;55.566;38.058;2023-01-09T06:44:24;102266.34;;;-15.59;61.16
71126;BME280;58785;55.566;38.058;2023-01-09T06:46:49;102252.59;;;-15.63;59.85
71126;BME280;58785;55.566;38.058;2023-01-09T06:49:15;102265.72;;;-15.54;60.71
71126;BME280;58785;55.566;38.058;2023-01-09T06:51:42;102262.25;;;-15.56;60.04
71126;BME280;58785;55.566;38.058;2023-01-09T06:54:08;102274.88;;;-15.59;61.15
71126;BME280;58785;55.566;38.058;2023-01-09T06:56:34;102266.47;;;-15.56;60.25
71126;BME280;58785;55.566;38.058;2023-01-09T06:58:59;102275.19;;;-15.53;59.83
71126;BME280;58785;55.566;38.058;2023-01-09T07:01:26;102287.00;;;-15.55;59.76
71126;BME280;58785;55.566;38.058;2023-01-09T07:03:51;102292.44;;;-15.47;60.55
71126;BME280;58785;55.566;38.058;2023-01-09T07:06:17;102286.75;;;-15.42;59.94
71126;BME280;58785;55.566;38.058;2023-01-09T07:08:44;102297.03;;;-15.40;60.19
71126;BME280;58785;55.566;38.058;2023-01-09T07:11:09;102285.59;;;-15.48;60.82
71126;BME280;58785;55.566;38.058;2023-01-09T07:13:35;102298.56;;;-15.44;60.29
71126;BME280;58785;55.566;38.058;2023-01-09T07:16:03;102298.44;;;-15.47;60.80
71126;BME280;58785;55.566;38.058;2023-01-09T07:18:30;102307.53;;;-15.34;59.54
71126;BME280;58785;55.566;38.058;2023-01-09T07:20:55;102287.88;;;-15.35;60.91
71126;BME280;58785;55.566;38.058;2023-01-09T07:23:21;102277.41;;;-15.41;59.39
71126;BME280;58785;55.566;38.058;2023-01-09T07:25:50;102304.72;;;-15.21;59.90
71126;BME280;58785;55.566;38.058;2023-01-09T07:28:16;102307.28;;;-15.21;60.64
71126;BME280;58785;55.566;38.058;2023-01-09T07:30:42;102311.63;;;-15.18;60.66
71126;BME280;58785;55.566;38.058;2023-01-09T07:33:07;102317.03;;;-15.12;59.87
71126;BME280;58785;55.566;38.058;2023-01-09T07:35:33;102318.16;;;-15.05;59.51
71126;BME280;58785;55.566;38.058;2023-01-09T07:37:59;102325.66;;;-15.10;59.27
71126;BME280;58785;55.566;38.058;2023-01-09T07:40:24;102303.22;;;-15.16;58.99
71126;BME280;58785;55.566;38.058;2023-01-09T07:42:54;102318.72;;;-15.13;59.65
71126;BME280;58785;55.566;38.058;2023-01-09T07:45:20;102322.94;;;-15.13;60.62
71126;BME280;58785;55.566;38.058;2023-01-09T07:47:45;102309.16;;;-15.17;59.48
71126;BME280;58785;55.566;38.058;2023-01-09T07:50:11;102329.25;;;-15.05;59.76
71126;BME280;58785;55.566;38.058;2023-01-09T07:52:37;102331.63;;;-15.10;59.41
71126;BME280;58785;55.566;38.058;2023-01-09T07:55:03;102313.19;;;-15.22;60.38
71126;BME280;58785;55.566;38.058;2023-01-09T07:57:29;102325.19;;;-15.21;59.77
71126;BME280;58785;55.566;38.058;2023-01-09T07:59:55;102331.34;;;-15.16;60.17
71126;BME280;58785;55.566;38.058;2023-01-09T08:02:21;102306.19;;;-15.26;59.71
71126;BME280;58785;55.566;38.058;2023-01-09T08:04:46;102325.31;;;-15.18;59.64
71126;BME280;58785;55.566;38.058;2023-01-09T08:07:12;102318.97;;;-15.26;59.57
71126;BME280;58785;55.566;38.058;2023-01-09T08:09:38;102331.16;;;-15.20;59.79
71126;BME280;58785;55.566;38.058;2023-01-09T08:12:04;102325.91;;;-15.23;59.94
71126;BME280;58785;55.566;38.058;2023-01-09T08:14:29;102314.88;;;-15.22;59.90
71126;BME280;58785;55.566;38.058;2023-01-09T08:16:55;102325.13;;;-15.22;58.77
71126;BME280;58785;55.566;38.058;2023-01-09T08:19:21;102300.19;;;-15.26;59.03
71126;BME280;58785;55.566;38.058;2023-01-09T08:21:46;102325.06;;;-15.03;59.05
71126;BME280;58785;55.566;38.058;2023-01-09T08:24:12;102325.88;;;-15.04;58.56
71126;BME280;58785;55.566;38.058;2023-01-09T08:26:38;102326.91;;;-15.00;59.63
71126;BME280;58785;55.566;38.058;2023-01-09T08:29:03;102322.53;;;-15.03;58.67
71126;BME280;58785;55.566;38.058;2023-01-09T08:31:30;102328.25;;;-15.08;59.52
71126;BME280;58785;55.566;38.058;2023-01-09T08:33:56;102320.13;;;-15.19;58.30
71126;BME280;58785;55.566;38.058;2023-01-09T08:36:21;102322.16;;;-15.12;59.66
71126;BME280;58785;55.566;38.058;2023-01-09T08:38:47;102326.81;;;-15.23;58.59
71126;BME280;58785;55.566;38.058;2023-01-09T08:41:13;102328.19;;;-15.10;59.94
71126;BME280;58785;55.566;38.058;2023-01-09T08:44:07;102324.53;;;-14.96;58.78
71126;BME280;58785;55.566;38.058;2023-01-09T08:46:52;102308.84;;;-15.03;59.19
71126;BME280;58785;55.566;38.058;2023-01-09T08:49:31;102330.75;;;-14.91;58.92
71126;BME280;58785;55.566;38.058;2023-01-09T08:51:57;102319.00;;;-14.86;58.53
71126;BME280;58785;55.566;38.058;2023-01-09T08:54:22;102326.97;;;-14.79;58.57
71126;BME280;58785;55.566;38.058;2023-01-09T08:56:48;102308.00;;;-14.83;59.07
71126;BME280;58785;55.566;38.058;2023-01-09T08:59:15;102310.25;;;-14.71;58.71
71126;BME280;58785;55.566;38.058;2023-01-09T09:01:40;102313.31;;;-14.59;58.80
71126;BME280;58785;55.566;38.058;2023-01-09T09:04:06;102306.22;;;-14.65;58.07
71126;BME280;58785;55.566;38.058;2023-01-09T09:06:32;102318.53;;;-14.56;58.40
71126;BME280;58785;55.566;38.058;2023-01-09T09:08:59;102303.72;;;-14.63;57.82
71126;BME280;58785;55.566;38.058;2023-01-09T09:11:34;102290.91;;;-14.84;59.39
71126;BME280;58785;55.566;38.058;2023-01-09T09:14:00;102313.63;;;-14.72;58.73
71126;BME280;58785;55.566;38.058;2023-01-09T09:16:47;102322.22;;;-14.70;59.07
71126;BME280;58785;55.566;38.058;2023-01-09T09:19:12;102315.22;;;-14.74;59.16
71126;BME280;58785;55.566;38.058;2023-01-09T09:21:40;102317.66;;;-14.77;59.22
71126;BME280;58785;55.566;38.058;2023-01-09T09:24:06;102320.47;;;-14.71;59.33
71126;BME280;58785;55.566;38.058;2023-01-09T09:26:31;102325.91;;;-14.64;58.98
71126;BME280;58785;55.566;38.058;2023-01-09T09:28:57;102313.97;;;-14.63;59.48
71126;BME280;58785;55.566;38.058;2023-01-09T09:31:23;102316.78;;;-14.57;58.80
71126;BME280;58785;55.566;38.058;2023-01-09T09:33:49;102298.44;;;-14.68;58.89
71126;BME280;58785;55.566;38.058;2023-01-09T09:36:14;102312.91;;;-14.68;57.85
71126;BME280;58785;55.566;38.058;2023-01-09T09:38:40;102303.91;;;-14.79;58.98
71126;BME280;58785;55.566;38.058;2023-01-09T09:41:13;102314.50;;;-14.72;58.08
71126;BME280;58785;55.566;38.058;2023-01-09T09:52:50;102319.81;;;-14.87;59.27
71126;BME280;58785;55.566;38.058;2023-01-09T09:55:30;102315.44;;;-14.89;58.97
71126;BME280;58785;55.566;38.058;2023-01-09T09:57:59;102310.72;;;-14.80;59.62
71126;BME280;58785;55.566;38.058;2023-01-09T10:00:25;102312.16;;;-14.66;58.76
71126;BME280;58785;55.566;38.058;2023-01-09T10:03:03;102293.84;;;-14.75;59.78
71126;BME280;58785;55.566;38.058;2023-01-09T10:05:34;102318.31;;;-14.62;59.83
71126;BME280;58785;55.566;38.058;2023-01-09T10:08:04;102305.75;;;-14.56;59.51
71126;BME280;58785;55.566;38.058;2023-01-09T10:10:40;102299.84;;;-14.54;59.37
71126;BME280;58785;55.566;38.058;2023-01-09T10:13:10;102312.00;;;-14.49;59.55
71126;BME280;58785;55.566;38.058;2023-01-09T10:16:32;102312.94;;;-14.47;59.14
71126;BME280;58785;55.566;38.058;2023-01-09T10:21:50;102306.19;;;-14.44;59.17
71126;BME280;58785;55.566;38.058;2023-01-09T10:26:52;102311.41;;;-14.22;58.88
71126;BME280;58785;55.566;38.058;2023-01-09T10:32:02;102310.53;;;-14.22;58.76
71126;BME280;58785;55.566;38.058;2023-01-09T10:37:48;102302.84;;;-14.22;59.59
71126;BME280;58785;55.566;38.058;2023-01-09T10:40:41;102294.38;;;-14.19;59.51
71126;BME280;58785;55.566;38.058;2023-01-09T10:45:42;102294.34;;;-14.21;59.37
71126;BME280;58785;55.566;38.058;2023-01-09T10:48:34;102312.44;;;-14.16;60.26
71126;BME280;58785;55.566;38.058;2023-01-09T10:51:03;102271.84;;;-14.28;60.08
71126;BME280;58785;55.566;38.058;2023-01-09T10:53:38;102307.69;;;-14.07;59.35
71126;BME280;58785;55.566;38.058;2023-01-09T10:58:50;102296.16;;;-13.96;59.70
71126;BME280;58785;55.566;38.058;2023-01-09T11:01:29;102312.88;;;-13.83;59.57
71126;BME280;58785;55.566;38.058;2023-01-09T11:03:55;102309.97;;;-13.93;59.90
71126;BME280;58785;55.566;38.058;2023-01-09T11:06:36;102309.06;;;-13.93;59.44
71126;BME280;58785;55.566;38.058;2023-01-09T11:09:04;102305.94;;;-14.08;59.61
71126;BME280;58785;55.566;38.058;2023-01-09T11:11:33;102326.69;;;-14.02;59.99
71126;BME280;58785;55.566;38.058;2023-01-09T11:16:54;102316.75;;;-14.15;60.55
71126;BME280;58785;55.566;38.058;2023-01-09T11:19:21;102338.13;;;-14.15;60.76
71126;BME280;58785;55.566;38.058;2023-01-09T11:21:47;102317.44;;;-14.19;59.94
71126;BME280;58785;55.566;38.058;2023-01-09T11:27:37;102345.06;;;-14.12;60.41
71126;BME280;58785;55.566;38.058;2023-01-09T11:29:42;102349.38;;;-14.11;60.42
71126;BME280;58785;55.566;38.058;2023-01-09T11:32:22;102339.69;;;-14.18;60.28
71126;BME280;58785;55.566;38.058;2023-01-09T11:34:48;102352.56;;;-14.17;60.09
71126;BME280;58785;55.566;38.058;2023-01-09T11:37:29;102352.38;;;-14.22;60.66
71126;BME280;58785;55.566;38.058;2023-01-09T11:39:59;102351.31;;;-14.27;60.58
71126;BME280;58785;55.566;38.058;2023-01-09T11:42:28;102353.25;;;-14.21;60.42
71126;BME280;58785;55.566;38.058;2023-01-09T11:45:18;102356.88;;;-14.16;60.37
71126;BME280;58785;55.566;38.058;2023-01-09T11:47:45;102337.19;;;-14.17;59.96
71126;BME280;58785;55.566;38.058;2023-01-09T11:50:22;102350.81;;;-14.18;61.32
71126;BME280;58785;55.566;38.058;2023-01-09T11:55:39;102331.31;;;-14.14;60.37
71126;BME280;58785;55.566;38.058;2023-01-09T11:58:07;102346.69;;;-14.14;61.07
71126;BME280;58785;55.566;38.058;2023-01-09T12:06:02;102361.75;;;-14.22;60.35
71126;BME280;58785;55.566;38.058;2023-01-09T12:14:35;102352.00;;;-14.31;60.94
71126;BME280;58785;55.566;38.058;2023-01-09T12:19:43;102349.31;;;-14.34;60.94
71126;BME280;58785;55.566;38.058;2023-01-09T12:22:51;102346.88;;;-14.31;61.16
71126;BME280;58785;55.566;38.058;2023-01-09T12:25:32;102341.84;;;-14.50;62.03
71126;BME280;58785;55.566;38.058;2023-01-09T12:28:17;102359.09;;;-14.46;62.07
71126;BME280;58785;55.566;38.058;2023-01-09T12:44:43;102357.44;;;-14.65;61.67
71126;BME280;58785;55.566;38.058;2023-01-09T12:50:22;102339.63;;;-14.83;61.87
71126;BME280;58785;55.566;38.058;2023-01-09T12:55:39;102324.69;;;-14.93;61.86
71126;BME280;58785;55.566;38.058;2023-01-09T12:58:44;102343.78;;;-14.85;62.83
71126;BME280;58785;55.566;38.058;2023-01-09T13:01:25;102345.41;;;-14.87;63.13
71126;BME280;58785;55.566;38.058;2023-01-09T13:04:14;102351.22;;;-14.91;62.87
71126;BME280;58785;55.566;38.058;2023-01-09T13:06:46;102330.19;;;-15.03;63.12
71126;BME280;58785;55.566;38.058;2023-01-09T13:09:51;102348.59;;;-14.92;62.44
71126;BME280;58785;55.566;38.058;2023-01-09T13:12:11;102350.41;;;-14.90;62.64
71126;BME280;58785;55.566;38.058;2023-01-09T13:14:58;102362.13;;;-14.95;63.14
71126;BME280;58785;55.566;38.058;2023-01-09T13:17:41;102360.19;;;-15.00;62.33
71126;BME280;58785;55.566;38.058;2023-01-09T13:20:21;102361.66;;;-15.05;63.60
71126;BME280;58785;55.566;38.058;2023-01-09T13:22:48;102362.06;;;-15.16;63.02
71126;BME280;58785;55.566;38.058;2023-01-09T13:27:47;102359.47;;;-15.35;63.50
71126;BME280;58785;55.566;38.058;2023-01-09T13:30:24;102382.66;;;-15.32;63.35
71126;BME280;58785;55.566;38.058;2023-01-09T13:33:22;102380.00;;;-15.33;63.75
71126;BME280;58785;55.566;38.058;2023-01-09T13:35:52;102379.59;;;-15.43;62.42
71126;BME280;58785;55.566;38.058;2023-01-09T13:38:21;102389.63;;;-15.47;63.18
71126;BME280;58785;55.566;38.058;2023-01-09T13:41:15;102397.22;;;-15.49;62.78
71126;BME280;58785;55.566;38.058;2023-01-09T13:44:03;102390.81;;;-15.58;63.59
71126;BME280;58785;55.566;38.058;2023-01-09T13:46:40;102410.56;;;-15.54;62.70
71126;BME280;58785;55.566;38.058;2023-01-09T13:49:28;102412.25;;;-15.55;63.60
71126;BME280;58785;55.566;38.058;2023-01-09T13:52:45;102409.16;;;-15.67;63.15
71126;BME280;58785;55.566;38.058;2023-01-09T13:59:45;102414.59;;;-15.61;63.66
71126;BME280;58785;55.566;38.058;2023-01-09T14:04:58;102416.44;;;-15.57;62.78
71126;BME280;58785;55.566;38.058;2023-01-09T14:07:44;102416.66;;;-15.52;63.21
71126;BME280;58785;55.566;38.058;2023-01-09T14:10:23;102401.84;;;-15.59;63.23
71126;BME280;58785;55.566;38.058;2023-01-09T14:12:52;102414.97;;;-15.52;63.81
71126;BME280;58785;55.566;38.058;2023-01-09T14:15:30;102416.78;;;-15.49;63.76
71126;BME280;58785;55.566;38.058;2023-01-09T14:18:13;102403.00;;;-15.53;63.70
71126;BME280;58785;55.566;38.058;2023-01-09T14:20:45;102395.97;;;-15.57;63.62
71126;BME280;58785;55.566;38.058;2023-01-09T14:23:22;102393.31;;;-15.60;64.09
71126;BME280;58785;55.566;38.058;2023-01-09T14:25:50;102394.22;;;-15.58;63.78
71126;BME280;58785;55.566;38.058;2023-01-09T14:28:21;102397.50;;;-15.62;63.96